Time;durP1;ratioP1;P1;durP2;ratioP2;P2;SDS_P1;SDS_P2;PMS_P1;PMS_P2;Temp;Humidity;BMP_temperature;BMP_pressure;BME280_temperature;BME280_humidity;BME280_pressure;Samples;Min_cycle;Max_cycle;Signal;HPM_P1;HPM_P2
2023/01/18 00:00:40;;;;;;;7.20;4.25;;;;;;;-4.26;100.00;98490.59;6059156;23;20460;-67
2023/01/18 00:03:11;;;;;;;3.17;3.05;;;;;;;-4.27;100.00;98512.81;6029392;23;20219;-67
2023/01/18 00:05:40;;;;;;;2.92;2.72;;;;;;;-5.00;100.00;98385.09;6058954;23;20021;-67
2023/01/18 00:08:11;;;;;;;3.67;3.40;;;;;;;-4.35;100.00;98485.72;6052934;23;20246;-68
2023/01/18 00:10:39;;;;;;;3.15;2.95;;;;;;;-4.78;100.00;98416.06;6060185;23;20028;-67
2023/01/18 00:13:05;;;;;;;10.10;3.85;;;;;;;-4.57;100.00;98454.75;6040128;23;20015;-67
2023/01/18 00:15:33;;;;;;;3.17;2.88;;;;;;;-4.43;100.00;98481.66;6064273;23;20080;-66
2023/01/18 00:18:00;;;;;;;3.33;3.17;;;;;;;-4.43;100.00;98481.66;6013568;23;20415;-67
2023/01/18 00:20:27;;;;;;;3.10;2.90;;;;;;;-4.38;100.00;98489.22;6073689;23;20021;-68
2023/01/18 00:22:54;;;;;;;3.42;3.28;;;;;;;-4.37;100.00;98500.28;6038060;23;20022;-67
2023/01/18 00:25:23;;;;;;;3.40;3.20;;;;;;;-5.01;100.00;98394.50;6069727;23;20134;-68
2023/01/18 00:27:52;;;;;;;3.60;3.20;;;;;;;-4.32;100.00;98506.13;6028003;23;20517;-67
2023/01/18 00:30:21;;;;;;;7.65;3.92;;;;;;;-5.06;100.00;98392.94;6061808;23;20027;-68
2023/01/18 00:32:53;;;;;;;2.80;2.70;;;;;;;-4.91;100.00;98436.03;6039142;23;20227;-68
2023/01/18 00:35:20;;;;;;;;;;;;;;;-4.35;100.00;98499.38;6058517;23;20207;-68
2023/01/18 00:37:48;;;;;;;3.50;3.30;;;;;;;-5.06;100.00;98391.22;6035175;23;20064;-66
2023/01/18 00:40:14;;;;;;;3.60;3.40;;;;;;;-4.75;100.00;98433.91;6040525;23;20030;-68
2023/01/18 00:45:26;;;;;;;3.83;3.63;;;;;;;-4.39;100.00;98510.56;6060266;23;20022;-67
2023/01/18 00:47:52;;;;;;;3.33;3.13;;;;;;;-4.44;100.00;98513.25;6031595;23;20058;-67
2023/01/18 00:50:21;;;;;;;3.95;3.55;;;;;;;-4.46;100.00;98509.91;6061958;23;20129;-68
2023/01/18 00:52:48;;;;;;;3.55;3.35;;;;;;;-4.49;100.00;98511.69;6037569;23;20039;-67
2023/01/18 00:55:16;;;;;;;2.83;2.72;;;;;;;-4.52;100.00;98519.47;6062507;23;20491;-67
2023/01/18 00:57:43;;;;;;;4.32;3.95;;;;;;;-4.50;100.00;98512.59;6029389;23;20498;-67
2023/01/18 01:00:14;;;;;;;4.78;4.47;;;;;;;-4.62;100.00;98494.09;6057491;23;20097;-67
2023/01/18 01:02:40;;;;;;;4.65;4.18;;;;;;;-4.36;100.00;98527.59;6026246;23;20107;-68
2023/01/18 01:08:02;;;;;;;3.67;3.47;;;;;;;-5.02;100.00;98418.38;6027448;23;20049;-67
2023/01/18 01:10:28;;;;;;;4.68;4.35;;;;;;;-5.00;100.00;98418.34;6058327;23;20053;-67
2023/01/18 01:26:40;;;;;;;3.80;3.58;;;;;;;-4.68;100.00;98511.34;6066407;23;20108;-67
2023/01/18 01:29:07;;;;;;;3.63;3.38;;;;;;;-4.67;100.00;98533.47;6031032;23;20042;-67
2023/01/18 01:31:34;;;;;;;3.05;2.92;;;;;;;-4.62;100.00;98537.59;6068219;23;20038;-67
2023/01/18 01:34:01;;;;;;;3.08;2.97;;;;;;;-5.28;100.00;98462.50;6065339;23;20010;-66
2023/01/18 01:36:27;;;;;;;4.03;3.83;;;;;;;-4.66;100.00;98541.13;6021714;23;20018;-67
2023/01/18 01:38:54;;;;;;;3.53;3.33;;;;;;;-4.65;100.00;98580.34;6036165;23;20015;-66
2023/01/18 01:41:32;;;;;;;3.90;3.70;;;;;;;-4.57;100.00;98549.44;6067999;23;20382;-66
2023/01/18 01:44:23;;;;;;;3.88;3.67;;;;;;;-5.30;100.00;98427.66;6063231;23;20030;-67
2023/01/18 01:46:57;;;;;;;3.00;2.80;;;;;;;-4.51;100.00;98564.66;6062364;23;20032;-68
2023/01/18 01:49:32;;;;;;;3.83;3.58;;;;;;;-4.42;100.00;98560.13;6063372;23;20252;-68
2023/01/18 01:52:04;;;;;;;4.78;4.35;;;;;;;-5.96;100.00;98301.53;6056323;23;20047;-67
2023/01/18 01:54:37;;;;;;;3.35;3.15;;;;;;;-5.05;100.00;98466.22;6059570;23;20392;-69
2023/01/18 01:57:09;;;;;;;5.88;4.40;;;;;;;-5.10;100.00;98468.06;6060773;23;20042;-70
2023/01/18 01:59:41;;;;;;;3.30;3.10;;;;;;;-4.74;100.00;98529.41;6032566;23;20050;-70
2023/01/18 02:02:08;;;;;;;5.07;4.05;;;;;;;-4.48;100.00;98573.09;6041020;23;20074;-70
2023/01/18 02:04:36;;;;;;;3.90;3.70;;;;;;;-4.48;100.00;98562.03;6025363;23;20108;-66
2023/01/18 02:07:03;;;;;;;2.97;2.88;;;;;;;-4.74;100.00;98508.94;6061343;23;20496;-68
2023/01/18 02:09:29;;;;;;;3.60;3.40;;;;;;;-4.64;100.00;98534.25;6029458;23;20249;-70
2023/01/18 02:11:56;;;;;;;3.83;3.60;;;;;;;-5.25;100.00;98433.50;6065766;23;20072;-70
2023/01/18 02:14:25;;;;;;;3.35;3.15;;;;;;;-4.37;100.00;98582.22;6062898;23;20022;-70
2023/01/18 02:17:05;;;;;;;4.70;4.38;;;;;;;-4.37;100.00;98588.19;6042944;23;20163;-70
2023/01/18 02:19:53;;;;;;;3.42;2.75;;;;;;;-4.36;100.00;98595.00;6032958;23;20273;-70
2023/01/18 02:22:25;;;;;;;3.53;3.35;;;;;;;-4.32;100.00;98598.31;6039869;23;20030;-70
2023/01/18 02:25:25;;;;;;;6.22;3.58;;;;;;;-4.31;100.00;98592.28;6014962;23;21047;-70
2023/01/18 02:28:07;;;;;;;3.13;3.03;;;;;;;-4.28;100.00;98592.22;6055157;23;20034;-70
2023/01/18 02:31:00;;;;;;;2.75;2.65;;;;;;;-4.23;100.00;98600.63;6028249;23;20172;-70
2023/01/18 02:33:46;;;;;;;2.80;2.70;;;;;;;-4.39;100.00;98566.06;6061071;23;20330;-71
2023/01/18 02:36:39;;;;;;;3.38;3.17;;;;;;;-4.17;100.00;98599.63;6035952;23;20055;-69
2023/01/18 02:39:22;;;;;;;5.05;3.72;;;;;;;-4.25;100.00;98590.44;6058861;23;20252;-72
2023/01/18 02:47:31;;;;;;;2.40;2.30;;;;;;;-4.25;100.00;98625.44;6060053;23;20034;-70
2023/01/18 02:49:58;;;;;;;2.72;2.63;;;;;;;-4.33;100.00;98604.31;6062730;23;20026;-70
2023/01/18 02:52:38;;;;;;;6.63;3.65;;;;;;;-4.34;100.00;98618.84;6044645;23;20022;-69
2023/01/18 02:55:09;;;;;;;4.45;4.15;;;;;;;-4.32;100.00;98623.91;6059828;23;20042;-71
2023/01/18 02:57:36;;;;;;;2.95;2.85;;;;;;;-4.36;100.00;98628.28;6035736;23;20046;-66
2023/01/18 03:00:06;;;;;;;2.80;2.70;;;;;;;-5.01;100.00;98522.38;6060425;23;20022;-68
2023/01/18 03:02:33;;;;;;;2.88;2.67;;;;;;;-4.74;100.00;98581.44;6037822;23;20629;-68
2023/01/18 03:05:00;;;;;;;4.53;4.15;;;;;;;-4.42;100.00;98620.75;6063963;23;20042;-68
2023/01/18 03:07:34;;;;;;;2.92;2.83;;;;;;;-4.37;100.00;98635.97;6046734;23;20042;-67
2023/01/18 03:10:05;;;;;;;3.08;2.92;;;;;;;-4.39;100.00;98635.19;6078975;23;20086;-67
2023/01/18 03:12:45;;;;;;;3.35;3.15;;;;;;;-4.46;100.00;98635.34;6042312;23;20035;-67
2023/01/18 03:15:15;;;;;;;3.67;3.47;;;;;;;-4.35;100.00;98647.03;6055663;23;20030;-68
2023/01/18 03:17:49;;;;;;;3.47;3.38;;;;;;;-4.39;100.00;98633.47;6043764;23;20065;-68
2023/01/18 03:20:24;;;;;;;2.72;2.63;;;;;;;-4.74;100.00;98583.97;6056734;23;20093;-68
2023/01/18 03:25:56;;;;;;;17.10;16.20;;;;;;;-4.32;100.00;98655.47;5949481;23;20227;-68
2023/01/18 03:35:02;;;;;;;3.10;3.00;;;;;;;-5.16;100.00;98557.72;6038684;23;20362;-67
2023/01/18 03:37:31;;;;;;;3.28;3.13;;;;;;;-4.60;100.00;98650.19;6059620;23;20090;-70
2023/01/18 03:40:04;;;;;;;3.35;3.20;;;;;;;-5.06;100.00;98584.75;6054708;23;20382;-70
2023/01/18 03:42:36;;;;;;;4.13;3.78;;;;;;;-5.01;100.00;98601.69;6047629;23;20527;-70
2023/01/18 03:45:14;;;;;;;2.40;2.30;;;;;;;-4.63;100.00;98655.38;6065645;23;20025;-67
2023/01/18 03:47:41;;;;;;;3.78;3.58;;;;;;;-4.55;100.00;98675.66;6067492;23;20486;-67
2023/01/18 03:50:08;;;;;;;7.85;3.75;;;;;;;-4.66;100.00;98665.69;6044731;23;20049;-66
2023/01/18 03:52:43;;;;;;;2.60;2.50;;;;;;;-4.55;100.00;98684.22;6046774;23;20183;-67
2023/01/18 03:55:22;;;;;;;2.70;2.60;;;;;;;-4.57;100.00;98695.34;6030487;23;20113;-69
2023/01/18 03:57:53;;;;;;;22.92;4.70;;;;;;;-4.58;100.00;98689.38;6057358;23;20041;-67
2023/01/18 04:00:20;;;;;;;2.85;2.72;;;;;;;-5.02;100.00;98627.28;6038803;23;20025;-68
2023/01/18 04:02:48;;;;;;;3.17;2.97;;;;;;;-4.59;100.00;98697.97;6058978;23;20090;-66
2023/01/18 04:05:16;;;;;;;3.53;3.33;;;;;;;-5.19;100.00;98608.91;6036628;23;20034;-68
2023/01/18 04:07:43;;;;;;;2.28;2.17;;;;;;;-5.21;100.00;98608.97;6064545;23;20026;-68
2023/01/18 04:10:13;;;;;;;3.97;3.78;;;;;;;-4.59;100.00;98728.69;6036524;23;20545;-66
2023/01/18 04:12:39;;;;;;;2.95;2.85;;;;;;;-4.64;100.00;98745.84;6065097;23;20354;-67
2023/01/18 04:15:06;;;;;;;3.30;3.10;;;;;;;-4.84;100.00;98689.97;6035674;23;20023;-68
2023/01/18 04:17:33;;;;;;;3.08;2.88;;;;;;;-4.76;100.00;98712.84;6066936;23;20246;-68
2023/01/18 04:19:59;;;;;;;3.58;3.38;;;;;;;-4.68;100.00;98722.03;6033967;23;20013;-67
2023/01/18 04:22:25;;;;;;;3.00;2.90;;;;;;;-4.77;100.00;98719.69;6065234;23;20518;-66
2023/01/18 04:24:52;;;;;;;2.88;2.78;;;;;;;-4.98;100.00;98684.34;6034737;23;20760;-67
2023/01/18 04:27:19;;;;;;;3.03;2.92;;;;;;;-4.72;100.00;98725.53;6064270;23;20026;-67
2023/01/18 04:29:46;;;;;;;2.90;2.80;;;;;;;-5.19;100.00;98666.03;6031649;23;20215;-67
2023/01/18 04:32:13;;;;;;;4.07;3.88;;;;;;;-5.49;100.00;98612.09;6064150;23;20026;-66
2023/01/18 04:34:39;;;;;;;4.57;4.22;;;;;;;-4.75;100.00;98727.31;6036423;23;20770;-68
2023/01/18 04:37:06;;;;;;;3.03;2.92;;;;;;;-4.76;100.00;98746.94;6049408;23;20010;-67
2023/01/18 04:39:32;;;;;;;4.60;2.88;;;;;;;-4.75;100.00;98740.09;6033436;23;20463;-68
2023/01/18 04:41:59;;;;;;;3.63;3.42;;;;;;;-5.24;100.00;98662.72;6062093;23;20025;-67
2023/01/18 04:44:25;;;;;;;2.35;2.25;;;;;;;-5.27;100.00;98662.75;6039008;23;20018;-67
2023/01/18 04:46:52;;;;;;;3.00;2.90;;;;;;;-4.90;100.00;98729.31;6066687;23;20010;-67
2023/01/18 04:49:20;;;;;;;2.75;2.60;;;;;;;-4.83;100.00;98746.25;6040084;23;20026;-67
2023/01/18 04:51:46;;;;;;;2.92;2.83;;;;;;;-4.83;100.00;98742.81;6064287;23;20084;-65
2023/01/18 04:54:16;;;;;;;3.97;3.78;;;;;;;-4.83;100.00;98750.50;6027490;23;20031;-67
2023/01/18 04:56:43;;;;;;;3.63;3.35;;;;;;;-4.98;100.00;98725.25;6063333;23;20323;-69
2023/01/18 04:59:14;;;;;;;4.15;3.88;;;;;;;-4.81;100.00;98754.72;6006548;23;20373;-67
2023/01/18 05:01:41;;;;;;;3.90;3.67;;;;;;;-4.84;100.00;98754.78;6061727;23;20232;-68
2023/01/18 05:04:11;;;;;;;3.65;3.45;;;;;;;-5.10;100.00;98732.28;6011170;23;20026;-69
2023/01/18 05:06:37;;;;;;;3.10;2.90;;;;;;;-5.29;100.00;98720.75;6061059;23;20437;-67
2023/01/18 05:09:04;;;;;;;3.65;3.45;;;;;;;-4.89;100.00;98778.75;6056112;23;20091;-68
2023/01/18 05:11:30;;;;;;;3.78;3.58;;;;;;;-4.91;100.00;98780.50;6066780;23;20041;-68
2023/01/18 05:13:57;;;;;;;2.75;2.65;;;;;;;-5.89;100.00;98619.72;6015364;23;20259;-68
2023/01/18 05:16:23;;;;;;;3.03;2.85;;;;;;;-4.94;100.00;98783.97;6060770;23;20041;-67
2023/01/18 05:18:50;;;;;;;3.38;3.08;;;;;;;-5.38;100.00;98732.00;6037275;23;20457;-67
2023/01/18 05:21:16;;;;;;;2.90;2.80;;;;;;;-5.04;100.00;98785.03;6055601;23;20094;-67
2023/01/18 05:23:43;;;;;;;4.85;3.55;;;;;;;-4.97;100.00;98809.63;6053434;23;20057;-67
2023/01/18 05:26:15;;;;;;;3.10;3.00;;;;;;;-5.21;100.00;98765.75;6029355;23;20253;-67
2023/01/18 05:28:42;;;;;;;2.80;2.70;;;;;;;-5.44;100.00;98727.84;6043999;23;20080;-68
2023/01/18 05:31:09;;;;;;;3.50;3.35;;;;;;;-5.10;100.00;98783.44;6067447;23;20038;-66
2023/01/18 05:33:35;;;;;;;2.67;2.58;;;;;;;-5.24;100.00;98759.88;6058690;23;20010;-67
2023/01/18 05:36:02;;;;;;;14.10;3.85;;;;;;;-5.03;100.00;98799.53;6029483;23;20033;-67
2023/01/18 05:38:29;;;;;;;3.33;3.17;;;;;;;-4.99;100.00;98811.38;6060843;23;20026;-69
2023/01/18 05:40:56;;;;;;;4.93;3.28;;;;;;;-5.04;100.00;98816.56;6030175;23;20390;-67
2023/01/18 05:43:24;;;;;;;2.50;2.40;;;;;;;-5.07;100.00;98818.34;6034441;23;20015;-68
2023/01/18 05:45:51;;;;;;;3.78;3.42;;;;;;;-5.86;100.00;98694.56;6001340;23;20026;-67
2023/01/18 05:48:18;;;;;;;2.92;2.83;;;;;;;-5.14;100.00;98821.91;6047380;23;20541;-67
2023/01/18 05:50:47;;;;;;;2.72;2.63;;;;;;;-5.15;100.00;98812.53;6032550;23;20053;-67
2023/01/18 05:53:17;;;;;;;3.67;3.40;;;;;;;-5.19;100.00;98832.22;6046672;23;20402;-67
2023/01/18 05:55:51;;;;;;;3.83;3.53;;;;;;;-5.38;100.00;98811.25;6057274;23;20036;-68
2023/01/18 05:58:18;;;;;;;3.38;3.17;;;;;;;-5.21;100.00;98833.97;6029876;23;20031;-68
2023/01/18 06:00:47;;;;;;;3.03;2.90;;;;;;;-5.24;100.00;98839.97;6058517;23;20034;-67
2023/01/18 06:03:14;;;;;;;3.03;2.83;;;;;;;-5.24;100.00;98839.97;6001707;23;20350;-68
2023/01/18 06:05:40;;;;;;;2.70;2.60;;;;;;;-5.24;100.00;98868.09;6063506;23;20515;-68
2023/01/18 06:08:07;;;;;;;2.97;2.88;;;;;;;-5.23;100.00;98856.16;6058889;23;20089;-67
2023/01/18 06:10:33;;;;;;;3.08;2.90;;;;;;;-5.72;100.00;98772.66;6033080;23;20276;-67
2023/01/18 06:13:00;;;;;;;5.07;4.68;;;;;;;-5.24;100.00;98860.41;6029853;23;20055;-67
2023/01/18 06:15:26;;;;;;;2.97;2.88;;;;;;;-5.23;100.00;98863.84;6037369;23;20089;-67
2023/01/18 06:17:53;;;;;;;3.85;3.47;;;;;;;-5.71;100.00;98793.09;6068804;23;20230;-69
2023/01/18 06:20:20;;;;;;;6.82;4.30;;;;;;;-5.49;100.00;98838.69;6015379;23;20088;-67
2023/01/18 06:22:47;;;;;;;3.25;3.05;;;;;;;-6.32;100.00;98717.50;6067086;23;20500;-69
2023/01/18 06:25:13;;;;;;;5.28;4.97;;;;;;;-5.51;100.00;98848.09;6043848;23;20015;-70
2023/01/18 06:27:40;;;;;;;3.70;3.40;;;;;;;-5.68;100.00;98825.41;6062711;23;20021;-67
2023/01/18 06:30:09;;;;;;;4.57;3.25;;;;;;;-5.98;100.00;98776.53;6030289;23;20011;-67
2023/01/18 06:32:36;;;;;;;5.28;3.97;;;;;;;-5.54;100.00;98849.00;6044458;23;20081;-69
2023/01/18 06:35:03;;;;;;;4.13;3.83;;;;;;;-5.36;100.00;98883.63;6032141;23;20084;-70
2023/01/18 06:37:29;;;;;;;3.38;3.15;;;;;;;-5.79;100.00;98823.03;6067012;23;20043;-69
2023/01/18 06:39:56;;;;;;;4.18;3.92;;;;;;;-6.01;100.00;98784.25;6037924;23;20443;-67
2023/01/18 06:42:22;;;;;;;3.20;3.03;;;;;;;-5.70;100.00;98861.19;6069217;23;20169;-66
2023/01/18 06:44:49;;;;;;;2.95;2.85;;;;;;;-5.87;100.00;98819.75;6037872;23;20352;-67
2023/01/18 06:47:18;;;;;;;3.38;3.17;;;;;;;-5.99;100.00;98836.16;6061365;23;20033;-67
2023/01/18 06:49:49;;;;;;;2.70;2.50;;;;;;;-5.33;100.00;98904.06;6037001;23;20102;-67
2023/01/18 06:52:15;;;;;;;4.07;3.83;;;;;;;-5.61;100.00;98860.22;6034983;23;20097;-67
2023/01/18 06:54:43;;;;;;;2.92;2.83;;;;;;;-5.98;100.00;98808.91;6036528;23;20026;-69
2023/01/18 06:57:11;;;;;;;2.90;2.80;;;;;;;-5.72;100.00;98870.59;6061674;23;20594;-67
2023/01/18 06:59:38;;;;;;;6.47;3.33;;;;;;;-5.94;100.00;98836.03;6026721;23;21104;-68
2023/01/18 07:02:05;;;;;;;3.10;2.92;;;;;;;-6.04;100.00;98832.81;6036050;23;20011;-67
2023/01/18 07:04:32;;;;;;;4.97;4.55;;;;;;;-5.84;100.00;98853.75;6038322;23;20458;-67
2023/01/18 07:07:01;;;;;;;2.53;2.42;;;;;;;-5.55;100.00;98895.03;6062653;23;20186;-67
2023/01/18 07:09:27;;;;;;;3.35;2.92;;;;;;;-5.43;100.00;98921.25;6055313;23;20026;-66
2023/01/18 07:11:54;;;;;;;3.63;3.42;;;;;;;-5.59;100.00;98895.94;6044820;23;20115;-66
2023/01/18 07:14:21;;;;;;;3.60;3.40;;;;;;;-5.88;100.00;98843.59;6041195;23;20467;-67
2023/01/18 07:16:47;;;;;;;2.92;2.80;;;;;;;-5.45;100.00;98925.56;6055371;23;20041;-69
2023/01/18 07:19:15;;;;;;;3.35;3.15;;;;;;;-5.37;100.00;98945.88;6084686;23;20076;-66
2023/01/18 07:21:41;;;;;;;3.42;3.25;;;;;;;-6.62;100.00;98745.19;6046578;23;20151;-66
2023/01/18 07:24:08;;;;;;;3.22;3.08;;;;;;;-5.73;100.00;98901.25;6063814;23;20148;-65
2023/01/18 07:26:34;;;;;;;2.97;2.80;;;;;;;-6.00;100.00;98854.03;6039809;23;20034;-67
2023/01/18 07:29:01;;;;;;;3.45;3.25;;;;;;;-6.17;100.00;98821.94;6061230;23;20010;-66
2023/01/18 07:31:28;;;;;;;3.78;3.38;;;;;;;-5.56;100.00;98922.31;6037296;23;20034;-66
2023/01/18 07:33:55;;;;;;;3.05;2.95;;;;;;;-5.64;100.00;98909.63;6047642;23;20522;-66
2023/01/18 07:36:22;;;;;;;2.92;2.83;;;;;;;-5.34;100.00;98957.75;6038814;23;20454;-66
2023/01/18 07:38:48;;;;;;;2.42;2.33;;;;;;;-5.56;100.00;98922.31;6063856;23;20231;-66
2023/01/18 07:41:16;;;;;;;3.28;3.08;;;;;;;-6.82;100.00;98705.47;6035476;23;20226;-66
2023/01/18 07:43:43;;;;;;;3.28;3.08;;;;;;;-5.32;100.00;98967.09;6041327;23;20577;-68
2023/01/18 07:46:13;;;;;;;3.05;2.95;;;;;;;-5.13;100.00;98974.47;6033397;23;20243;-72
2023/01/18 07:48:40;;;;;;;2.90;2.80;;;;;;;-5.10;100.00;99000.00;6067652;23;20035;-75
2023/01/18 07:51:09;;;;;;;2.65;2.55;;;;;;;-6.68;100.00;98732.50;6033088;23;20636;-72
2023/01/18 07:53:36;;;;;;;3.08;2.97;;;;;;;-5.06;100.00;98994.78;6064221;23;20488;-74
2023/01/18 07:56:10;;;;;;;3.60;3.45;;;;;;;-5.13;100.00;98977.00;6059847;23;20026;-72
2023/01/18 07:58:37;;;;;;;3.30;3.17;;;;;;;-4.98;100.00;98998.97;6036114;23;20053;-72
2023/01/18 08:01:15;;;;;;;2.88;2.78;;;;;;;-4.94;100.00;98998.03;6062771;23;20042;-72
2023/01/18 08:03:43;;;;;;;4.15;3.88;;;;;;;-4.93;100.00;99005.69;6060102;23;20022;-72
2023/01/18 08:06:15;;;;;;;9.23;4.65;;;;;;;-5.41;100.00;98932.28;6028726;23;20396;-71
2023/01/18 08:08:42;;;;;;;4.10;3.70;;;;;;;-4.89;100.00;99009.00;6059180;23;20049;-75
2023/01/18 08:11:10;;;;;;;3.28;3.08;;;;;;;-4.84;100.00;99014.91;6031675;23;20371;-72
2023/01/18 08:13:36;;;;;;;7.72;3.05;;;;;;;-4.82;100.00;99029.38;6056964;23;20026;-72
2023/01/18 08:16:05;;;;;;;3.58;3.28;;;;;;;-5.27;100.00;98949.09;6035496;23;20163;-73
2023/01/18 08:18:32;;;;;;;3.78;3.47;;;;;;;-4.74;100.00;99023.28;6058174;23;20220;-73
2023/01/18 08:20:59;;;;;;;3.88;3.67;;;;;;;-5.12;100.00;98978.72;6052010;23;20421;-74
2023/01/18 08:23:25;;;;;;;4.18;3.88;;;;;;;-6.31;100.00;98762.59;6065422;23;20468;-73
2023/01/18 08:25:52;;;;;;;3.10;2.90;;;;;;;-5.05;100.00;98970.94;6030632;23;20030;-73
2023/01/18 08:28:20;;;;;;;3.15;3.03;;;;;;;-5.28;100.00;98932.94;6058343;23;20298;-72
2023/01/18 08:30:47;;;;;;;3.83;3.28;;;;;;;-4.72;100.00;99029.22;6031243;23;20030;-73
2023/01/18 08:33:14;;;;;;;3.45;3.25;;;;;;;-5.27;100.00;98923.53;6063064;23;20042;-74
2023/01/18 08:35:46;;;;;;;2.92;2.83;;;;;;;-4.43;100.00;99047.47;6056988;23;20049;-71
2023/01/18 08:38:14;;;;;;;4.85;4.40;;;;;;;-4.37;100.00;99058.47;6060443;23;20306;-72
2023/01/18 08:40:41;;;;;;;2.90;2.80;;;;;;;-4.90;100.00;98985.16;6026602;23;20059;-72
2023/01/18 08:43:09;;;;;;;5.45;5.13;;;;;;;-5.41;100.00;98893.94;6058524;23;20456;-72
2023/01/18 08:45:36;;;;;;;3.75;3.50;;;;;;;-4.53;100.00;99032.28;6034976;23;20174;-72
2023/01/18 08:48:05;;;;;;;6.78;4.15;;;;;;;-4.28;100.00;99076.25;6062091;23;20040;-71
2023/01/18 08:50:33;;;;;;;5.18;3.92;;;;;;;-4.25;100.00;99087.28;6025609;23;20055;-71
2023/01/18 08:53:01;;;;;;;3.25;3.05;;;;;;;-4.21;100.00;99088.91;6061390;23;20477;-71
2023/01/18 08:55:32;;;;;;;3.72;3.53;;;;;;;-4.52;100.00;99047.63;6037860;23;20131;-71
2023/01/18 08:57:59;;;;;;;4.53;4.32;;;;;;;-4.50;100.00;99029.69;6032116;23;20035;-72
2023/01/18 09:00:29;;;;;;;7.60;4.78;;;;;;;-3.98;100.00;99097.88;6056525;23;20032;-72
2023/01/18 09:02:56;;;;;;;5.13;3.60;;;;;;;-4.09;100.00;99090.41;6055756;23;20076;-71
2023/01/18 09:05:25;;;;;;;3.58;3.38;;;;;;;-3.76;100.00;99126.50;6062772;23;20046;-72
2023/01/18 09:07:53;;;;;;;2.83;2.72;;;;;;;-3.66;100.00;99127.16;6058919;23;20411;-71
2023/01/18 09:10:21;;;;;;;3.90;3.65;;;;;;;-4.02;100.00;99040.72;6010985;23;20058;-71
2023/01/18 09:12:47;;;;;;;3.92;3.00;;;;;;;-4.14;100.00;99010.22;6062741;23;20027;-73
2023/01/18 09:15:14;;;;;;;3.85;3.65;;;;;;;-3.99;100.00;99015.91;6030801;23;20274;-71
2023/01/18 09:17:43;;;;;;;3.70;3.50;;;;;;;-3.64;100.00;99064.72;6059708;23;20250;-71
2023/01/18 09:20:10;;;;;;;2.85;2.75;;;;;;;-3.21;100.00;99124.53;6054129;23;20106;-72
2023/01/18 09:22:38;;;;;;;3.75;3.47;;;;;;;-3.07;100.00;99131.91;6070270;23;20018;-71
2023/01/18 09:25:05;;;;;;;3.10;3.00;;;;;;;-2.89;100.00;99136.63;6030597;23;20219;-72
2023/01/18 09:27:31;;;;;;;3.22;3.13;;;;;;;-2.72;100.00;99135.44;6043960;23;20033;-71
2023/01/18 09:29:58;;;;;;;2.70;2.60;;;;;;;-2.99;100.00;99077.88;5998702;23;20026;-72
2023/01/18 09:32:26;;;;;;;3.05;2.90;;;;;;;-3.24;100.00;99011.72;6033879;23;20084;-71
2023/01/18 09:34:53;;;;;;;3.38;3.22;;;;;;;-2.94;100.00;99053.78;6005823;23;20218;-71
2023/01/18 09:37:20;;;;;;;3.90;3.63;;;;;;;-2.48;100.00;99116.88;6058144;23;20034;-72
2023/01/18 09:39:47;;;;;;;3.47;3.28;;;;;;;-2.15;100.00;99158.00;6027602;23;20386;-71
2023/01/18 09:42:24;;;;;;;3.80;3.58;;;;;;;-2.19;100.00;99148.69;6064714;23;20218;-71
2023/01/18 09:44:54;;;;;;;4.10;3.70;;;;;;;-3.57;100.00;98913.31;6029235;23;20558;-72
2023/01/18 09:47:30;;;;;;;3.78;3.47;;;;;;;-2.02;100.00;99161.13;6060883;23;20262;-71
2023/01/18 09:50:09;;;;;;;3.80;3.42;;;;;;;-1.99;100.00;99162.75;6056354;23;20032;-71
2023/01/18 09:52:50;;;;;;;2.95;2.85;;;;;;;-2.10;100.00;99140.75;6036018;23;20065;-72
2023/01/18 09:55:41;;;;;;;2.92;2.83;;;;;;;-1.89;100.00;99171.91;6052235;23;20343;-71
2023/01/18 09:58:32;;;;;;;3.85;3.65;;;;;;;-1.87;100.00;99168.41;6028858;23;20099;-71
2023/01/18 10:01:04;;;;;;;5.82;4.80;;;;;;;-1.72;100.00;99177.47;6053624;23;20022;-72
2023/01/18 10:03:40;;;;;;;;;;;;;;;-1.69;100.00;99179.13;6030293;23;20039;-71
2023/01/18 10:06:16;;;;;;;4.63;4.20;;;;;;;-1.67;100.00;99188.47;6044716;23;19968;-72
2023/01/18 10:09:09;;;;;;;3.38;3.28;;;;;;;-1.62;100.00;99180.66;6028644;23;20022;-72
2023/01/18 10:11:49;;;;;;;3.85;3.65;;;;;;;-1.59;100.00;99190.84;6059906;23;20302;-71
2023/01/18 10:14:50;;;;;;;3.92;3.58;;;;;;;-1.56;100.00;99192.47;6033363;23;20015;-72
2023/01/18 10:17:24;;;;;;;5.53;4.97;;;;;;;-2.34;100.00;99059.16;6050999;23;20507;-71
2023/01/18 10:19:51;;;;;;;10.15;4.03;;;;;;;-1.89;100.00;99126.47;6020800;23;20038;-71
2023/01/18 10:22:27;;;;;;;3.72;3.53;;;;;;;-1.52;100.00;99188.97;6059372;23;20022;-71
2023/01/18 10:25:08;;;;;;;5.00;4.70;;;;;;;-1.48;100.00;99188.00;6030312;23;20065;-72
2023/01/18 10:28:06;;;;;;;4.10;3.80;;;;;;;-1.46;100.00;99186.22;6055360;23;20034;-72
2023/01/18 10:31:16;;;;;;;4.50;4.18;;;;;;;-1.56;100.00;99182.19;6055768;23;20290;-72
2023/01/18 10:33:47;;;;;;;4.18;3.83;;;;;;;-1.84;100.00;99111.78;5984263;23;20014;-71
2023/01/18 10:36:18;;;;;;;3.03;2.92;;;;;;;-1.30;100.00;99192.63;6004106;23;20038;-71
2023/01/18 10:38:47;;;;;;;3.28;3.17;;;;;;;-1.37;100.00;99161.97;6036401;23;20256;-71
2023/01/18 10:41:26;;;;;;;3.70;3.42;;;;;;;-1.66;100.00;99118.16;6032227;23;20031;-72
2023/01/18 10:43:53;;;;;;;4.13;3.75;;;;;;;-1.58;100.00;99135.09;6058698;23;20369;-71
2023/01/18 10:46:20;;;;;;;3.38;3.20;;;;;;;-1.48;100.00;99113.38;6022479;23;20509;-71
2023/01/18 10:48:52;;;;;;;3.42;3.22;;;;;;;-0.97;100.00;99197.69;6051223;23;20508;-71
2023/01/18 10:51:35;;;;;;;7.85;4.50;;;;;;;-0.94;100.00;99202.75;6020569;23;20027;-71
2023/01/18 10:54:17;;;;;;;3.42;3.28;;;;;;;-0.93;100.00;99207.00;6046237;23;20343;-71
2023/01/18 10:56:43;;;;;;;5.97;4.38;;;;;;;-1.37;100.00;99156.81;6056117;23;20038;-72
2023/01/18 10:59:28;;;;;;;6.20;4.15;;;;;;;-0.80;100.00;99230.69;6009300;23;20021;-72
2023/01/18 11:01:56;;;;;;;4.60;4.20;;;;;;;-0.80;100.00;99212.66;6058086;23;20145;-71
2023/01/18 11:04:31;;;;;;;4.47;4.03;;;;;;;-1.34;100.00;99118.09;6056542;23;20073;-71
2023/01/18 11:07:03;;;;;;;6.63;5.45;;;;;;;-0.81;100.00;99193.75;6040552;23;20027;-73
2023/01/18 11:09:33;;;;;;;;;;;;;;;-0.49;100.00;99215.13;6054201;23;20026;-73
2023/01/18 11:12:36;;;;;;;3.88;3.42;;;;;;;-0.39;100.00;99222.59;6034895;23;19930;-73
2023/01/18 11:15:14;;;;;;;;;;;;;;;-0.31;100.00;99223.19;6025877;23;20042;-73
2023/01/18 11:17:59;;;;;;;3.60;3.42;;;;;;;-0.44;100.00;99182.34;6058807;23;19909;-73
2023/01/18 11:20:48;;;;;;;3.13;3.03;;;;;;;-0.09;100.00;99221.59;6035867;23;20600;-74
2023/01/18 11:23:26;;;;;;;4.10;3.90;;;;;;;-0.42;100.00;99149.63;6060986;23;20146;-72
2023/01/18 11:26:00;;;;;;;10.60;5.80;;;;;;;0.14;100.00;99233.75;6026627;23;20007;-73
2023/01/18 11:28:51;;;;;;;5.10;4.65;;;;;;;-0.15;100.00;99159.09;6028995;23;20056;-73
2023/01/18 11:31:21;;;;;;;4.50;4.15;;;;;;;0.48;100.00;99229.19;6030449;23;20093;-73
2023/01/18 11:33:49;;;;;;;4.75;4.47;;;;;;;0.71;100.00;99229.22;6057318;23;20441;-73
2023/01/18 11:36:18;;;;;;;3.88;3.67;;;;;;;0.49;100.00;99156.88;6036239;23;20070;-74
2023/01/18 11:38:45;;;;;;;4.68;4.38;;;;;;;1.11;100.00;99222.63;6048893;23;20185;-73
2023/01/18 11:41:20;;;;;;;5.00;4.55;;;;;;;1.25;100.00;99200.59;6041134;23;20415;-74
2023/01/18 11:44:11;;;;;;;5.05;4.43;;;;;;;1.27;100.00;99194.44;6053539;23;20089;-73
2023/01/18 11:46:44;;;;;;;3.75;3.45;;;;;;;1.65;100.00;99219.72;6031999;23;20034;-74
2023/01/18 11:49:23;;;;;;;4.55;4.22;;;;;;;1.73;100.00;99222.84;6062842;23;20034;-74
2023/01/18 11:52:01;;;;;;;3.80;3.63;;;;;;;1.53;100.00;99148.66;6027090;23;20053;-74
2023/01/18 11:54:52;;;;;;;4.40;4.15;;;;;;;1.96;100.00;99177.94;6042851;23;20432;-73
2023/01/18 11:57:19;;;;;;;5.28;4.88;;;;;;;1.55;100.00;99147.69;6033087;23;20031;-74
2023/01/18 11:59:47;;;;;;;4.82;4.30;;;;;;;1.83;100.00;99138.81;6052612;23;20039;-74
2023/01/18 12:02:54;;;;;;;3.67;3.47;;;;;;;2.42;100.00;99199.28;6035686;23;20018;-74
2023/01/18 12:05:41;;;;;;;5.18;4.28;;;;;;;2.48;100.00;99199.03;6058511;23;20122;-72
2023/01/18 12:08:22;;;;;;;7.50;4.70;;;;;;;2.27;100.00;99151.63;6028030;23;20037;-72
2023/01/18 12:11:14;;;;;;;5.07;4.45;;;;;;;1.48;100.00;99013.56;6065607;23;20092;-72
2023/01/18 12:13:46;;;;;;;4.38;4.07;;;;;;;1.83;100.00;99071.56;6032704;23;20038;-72
2023/01/18 12:16:23;;;;;;;10.65;4.32;;;;;;;2.61;100.00;99191.56;6061772;23;20247;-73
2023/01/18 12:19:18;;;;;;;3.78;3.58;;;;;;;2.45;100.00;99193.16;6031934;23;20034;-72